Time;durP1;ratioP1;P1;durP2;ratioP2;P2;SDS_P1;SDS_P2;PMS_P1;PMS_P2;Temp;Humidity;BMP_temperature;BMP_pressure;BME280_temperature;BME280_humidity;BME280_pressure;Samples;Min_cycle;Max_cycle;Signal;HPM_P1;HPM_P2
2021/07/13 00:01:31;;;;;;;25.27;23.47;;;;;;;;;;4941974;29;20228;-68
2021/07/13 00:04:16;;;;;;;25.27;23.47;;;;;;;;;;4934168;29;20208;-69
2021/07/13 00:07:00;;;;;;;25.23;23.43;;;;;;;;;;4941045;29;20272;-70
2021/07/13 00:09:47;;;;;;;26.67;24.67;;;;;;;;;;4944957;29;20195;-69
2021/07/13 00:12:33;;;;;;;25.87;23.97;;;;;;;;;;4941411;29;20230;-70
2021/07/13 00:15:18;;;;;;;24.97;23.00;;;;;;;;;;4935074;29;20208;-69
2021/07/13 00:18:04;;;;;;;27.40;25.43;;;;;;;;;;4936222;29;20208;-68
2021/07/13 00:20:50;;;;;;;24.57;22.83;;;;;;;;;;4933275;29;20298;-68
2021/07/13 00:23:35;;;;;;;24.97;23.27;;;;;;;;;;4933916;29;20226;-69
2021/07/13 00:26:20;;;;;;;24.50;22.80;;;;;;;;;;4936231;29;20210;-69
2021/07/13 00:29:06;;;;;;;24.30;22.60;;;;;;;;;;4947698;29;20215;-69
2021/07/13 00:31:52;;;;;;;23.90;22.20;;;;;;;;;;4943137;29;20309;-69
2021/07/13 00:34:36;;;;;;;24.33;22.63;;;;;;;;;;4933839;29;20215;-69
2021/07/13 00:37:21;;;;;;;24.33;22.63;;;;;;;;;;4945345;29;20208;-69
2021/07/13 00:40:07;;;;;;;25.20;23.50;;;;;;;;;;4952679;29;20207;-70
2021/07/13 00:42:53;;;;;;;24.70;22.97;;;;;;;;;;4939986;29;20290;-69
2021/07/13 00:45:39;;;;;;;22.87;21.37;;;;;;;;;;4934701;29;20255;-69
2021/07/13 00:48:24;;;;;;;23.10;21.60;;;;;;;;;;4944298;29;20706;-69
2021/07/13 00:51:10;;;;;;;26.00;24.20;;;;;;;;;;4933610;29;20422;-69
2021/07/13 00:53:55;;;;;;;24.87;23.20;;;;;;;;;;4932867;29;20239;-69
2021/07/13 00:56:41;;;;;;;24.70;22.93;;;;;;;;;;4933631;29;20209;-70
2021/07/13 00:59:26;;;;;;;23.60;21.90;;;;;;;;;;4933228;29;20211;-70
2021/07/13 01:02:13;;;;;;;25.90;24.03;;;;;;;;;;4944520;29;20304;-69
2021/07/13 01:05:00;;;;;;;25.33;23.53;;;;;;;;;;4942687;29;20334;-70
2021/07/13 01:07:49;;;;;;;25.63;23.63;;;;;;;;;;4932262;29;20231;-70
2021/07/13 01:10:39;;;;;;;25.90;24.00;;;;;;;;;;4938249;29;20354;-70
2021/07/13 01:13:28;;;;;;;25.70;23.93;;;;;;;;;;4933251;29;20205;-70
2021/07/13 01:16:19;;;;;;;26.77;24.73;;;;;;;;;;4940628;29;20205;-69
2021/07/13 01:19:13;;;;;;;28.80;26.70;;;;;;;;;;4940736;29;20210;-69
2021/07/13 01:21:59;;;;;;;28.53;26.43;;;;;;;;;;4933507;29;20307;-70
2021/07/13 01:24:55;;;;;;;26.53;24.63;;;;;;;;;;4934179;29;20915;-69
2021/07/13 01:28:02;;;;;;;29.03;26.87;;;;;;;;;;4932173;29;20706;-69
2021/07/13 01:30:51;;;;;;;28.67;26.63;;;;;;;;;;4943110;29;20231;-69
2021/07/13 01:33:36;;;;;;;30.77;28.37;;;;;;;;;;4934166;29;20210;-69
2021/07/13 01:36:23;;;;;;;30.53;28.17;;;;;;;;;;4933950;29;20286;-69
2021/07/13 01:39:09;;;;;;;30.97;28.77;;;;;;;;;;4943470;29;20856;-70
2021/07/13 01:41:58;;;;;;;31.20;28.80;;;;;;;;;;4936833;29;20225;-69
2021/07/13 01:44:45;;;;;;;31.87;29.47;;;;;;;;;;4946350;29;20201;-69
2021/07/13 01:47:31;;;;;;;32.07;29.47;;;;;;;;;;4950331;29;20257;-69
2021/07/13 01:50:16;;;;;;;37.78;35.08;;;;;;;;;;4936876;29;20505;-69
2021/07/13 01:53:02;;;;;;;36.03;33.10;;;;;;;;;;4936691;29;20568;-69
2021/07/13 01:55:47;;;;;;;36.13;33.43;;;;;;;;;;4939430;29;20797;-69
2021/07/13 01:58:33;;;;;;;37.03;34.03;;;;;;;;;;4940025;29;20749;-70
2021/07/13 02:01:21;;;;;;;38.07;35.10;;;;;;;;;;4935651;29;20600;-71
2021/07/13 02:04:06;;;;;;;37.57;34.80;;;;;;;;;;4948646;29;20243;-70
2021/07/13 02:06:51;;;;;;;38.10;35.17;;;;;;;;;;4951023;29;20219;-69
2021/07/13 02:09:36;;;;;;;37.00;34.13;;;;;;;;;;4953880;29;20807;-69
2021/07/13 02:12:21;;;;;;;37.33;34.53;;;;;;;;;;4954946;29;20713;-69
2021/07/13 02:15:07;;;;;;;36.83;34.07;;;;;;;;;;4950976;29;20210;-69
2021/07/13 02:17:53;;;;;;;36.23;33.53;;;;;;;;;;4935680;29;20586;-69
2021/07/13 02:20:38;;;;;;;35.73;32.97;;;;;;;;;;4938424;29;20221;-69
2021/07/13 02:23:23;;;;;;;40.00;36.90;;;;;;;;;;4936049;29;20232;-69
2021/07/13 02:26:09;;;;;;;43.88;40.60;;;;;;;;;;4941810;29;20421;-69
2021/07/13 02:29:00;;;;;;;40.17;36.87;;;;;;;;;;4949133;29;20220;-69
2021/07/13 02:31:47;;;;;;;40.30;37.10;;;;;;;;;;4937755;29;20244;-70
2021/07/13 02:34:36;;;;;;;39.77;36.73;;;;;;;;;;4936802;29;20222;-69
2021/07/13 02:37:22;;;;;;;37.53;34.73;;;;;;;;;;4947075;29;20242;-69
2021/07/13 02:40:08;;;;;;;38.17;35.37;;;;;;;;;;4936107;29;20211;-69
2021/07/13 02:42:54;;;;;;;40.87;37.77;;;;;;;;;;4935692;29;20740;-69
2021/07/13 02:45:40;;;;;;;43.13;39.63;;;;;;;;;;4939738;29;20693;-69
2021/07/13 02:48:26;;;;;;;48.75;45.15;;;;;;;;;;4944176;29;20432;-69
2021/07/13 02:51:14;;;;;;;46.87;43.07;;;;;;;;;;4966473;23;20328;-72
2021/07/13 02:53:59;;;;;;;43.17;39.77;;;;;;;;;;4959985;28;20621;-72
2021/07/13 02:56:45;;;;;;;42.80;39.40;;;;;;;;;;4967199;28;20204;-72
2021/07/13 02:59:30;;;;;;;49.07;44.97;;;;;;;;;;4956494;28;20700;-72
2021/07/13 03:02:16;;;;;;;47.83;44.00;;;;;;;;;;4961629;28;20231;-72
2021/07/13 03:05:01;;;;;;;47.67;43.63;;;;;;;;;;4968606;28;20228;-72
2021/07/13 03:07:50;;;;;;;45.47;41.90;;;;;;;;;;4964269;28;20211;-72
2021/07/13 03:10:35;;;;;;;43.53;40.07;;;;;;;;;;4963659;28;20221;-72
2021/07/13 03:13:21;;;;;;;42.57;39.10;;;;;;;;;;4961939;28;20417;-72
2021/07/13 03:16:06;;;;;;;44.40;40.90;;;;;;;;;;4966557;28;20195;-72
2021/07/13 03:18:51;;;;;;;41.73;38.50;;;;;;;;;;4956552;28;20676;-72
2021/07/13 03:21:38;;;;;;;40.77;37.27;;;;;;;;;;4970782;28;20234;-72
2021/07/13 03:24:25;;;;;;;45.67;41.97;;;;;;;;;;4962464;28;20716;-72
2021/07/13 03:27:11;;;;;;;46.63;42.63;;;;;;;;;;4966281;28;20760;-73
2021/07/13 03:29:57;;;;;;;43.97;40.50;;;;;;;;;;4964300;28;20322;-72
2021/07/13 03:32:43;;;;;;;45.37;41.77;;;;;;;;;;4971096;28;20278;-73
2021/07/13 03:35:28;;;;;;;45.87;42.17;;;;;;;;;;4968694;28;20218;-72
2021/07/13 03:38:12;;;;;;;44.90;41.30;;;;;;;;;;4960929;28;20752;-72
2021/07/13 03:40:59;;;;;;;45.93;42.23;;;;;;;;;;4971602;28;20209;-73
2021/07/13 03:43:44;;;;;;;45.17;41.47;;;;;;;;;;4964148;28;20343;-72
2021/07/13 03:46:32;;;;;;;55.80;51.47;;;;;;;;;;4966803;28;20433;-71
2021/07/13 03:49:17;;;;;;;50.17;46.03;;;;;;;;;;4963616;28;20239;-72
2021/07/13 03:52:02;;;;;;;46.87;42.67;;;;;;;;;;4968749;28;20787;-72
2021/07/13 03:54:48;;;;;;;46.90;43.00;;;;;;;;;;4961225;28;20226;-72
2021/07/13 03:57:34;;;;;;;50.80;46.63;;;;;;;;;;4952833;28;20275;-72
2021/07/13 04:00:19;;;;;;;47.20;43.30;;;;;;;;;;4959137;28;20382;-72
2021/07/13 04:03:04;;;;;;;49.80;45.70;;;;;;;;;;4955811;28;20589;-72
2021/07/13 04:05:49;;;;;;;48.43;44.23;;;;;;;;;;4954471;28;20764;-72
2021/07/13 04:08:34;;;;;;;45.90;42.10;;;;;;;;;;4962040;28;20589;-72
2021/07/13 04:11:20;;;;;;;45.30;41.53;;;;;;;;;;4964177;28;20245;-72
2021/07/13 04:14:06;;;;;;;45.93;42.13;;;;;;;;;;4957420;28;20281;-72
2021/07/13 04:16:52;;;;;;;47.30;43.30;;;;;;;;;;4968242;28;20748;-72
2021/07/13 04:19:36;;;;;;;49.03;44.93;;;;;;;;;;4964550;28;20306;-72
2021/07/13 04:22:21;;;;;;;53.58;49.22;;;;;;;;;;4956709;28;20462;-72
2021/07/13 04:25:07;;;;;;;49.17;45.07;;;;;;;;;;4967274;28;20250;-72
2021/07/13 04:27:52;;;;;;;49.07;44.97;;;;;;;;;;4967203;28;20219;-72
2021/07/13 04:30:39;;;;;;;49.33;45.33;;;;;;;;;;4965289;28;20709;-72
2021/07/13 04:33:23;;;;;;;47.20;43.33;;;;;;;;;;4957941;28;20211;-72
2021/07/13 04:36:08;;;;;;;50.20;45.83;;;;;;;;;;4971195;28;20700;-72
2021/07/13 04:38:53;;;;;;;52.27;47.63;;;;;;;;;;4963400;28;20215;-72
2021/07/13 04:41:38;;;;;;;50.50;46.10;;;;;;;;;;4960741;28;20307;-72
2021/07/13 04:44:23;;;;;;;61.73;56.57;;;;;;;;;;4953032;28;20499;-72
2021/07/13 04:47:10;;;;;;;53.23;48.63;;;;;;;;;;4961166;28;20212;-72
2021/07/13 04:49:55;;;;;;;54.83;49.77;;;;;;;;;;4967363;28;20217;-72
2021/07/13 04:52:40;;;;;;;53.63;49.03;;;;;;;;;;4965609;28;20251;-72
2021/07/13 04:55:25;;;;;;;56.07;51.27;;;;;;;;;;4960820;28;20210;-72
2021/07/13 04:58:10;;;;;;;56.20;51.10;;;;;;;;;;4964878;28;20207;-72
2021/07/13 05:00:55;;;;;;;57.00;52.00;;;;;;;;;;4953417;28;20209;-70
2021/07/13 05:03:41;;;;;;;57.57;52.37;;;;;;;;;;4963033;28;20225;-71
2021/07/13 05:06:26;;;;;;;60.57;54.87;;;;;;;;;;4952443;29;20313;-72
2021/07/13 05:09:11;;;;;;;57.83;52.53;;;;;;;;;;4952598;29;20204;-72
2021/07/13 05:11:56;;;;;;;58.07;52.87;;;;;;;;;;4952855;28;20361;-71
2021/07/13 05:14:41;;;;;;;61.63;55.87;;;;;;;;;;4958953;28;20210;-72
2021/07/13 05:17:26;;;;;;;60.83;55.30;;;;;;;;;;4958225;29;20693;-71
2021/07/13 05:20:14;;;;;;;58.90;53.63;;;;;;;;;;4969370;28;20203;-71
2021/07/13 05:23:06;;;;;;;62.47;56.57;;;;;;;;;;4977983;28;20231;-71
2021/07/13 05:25:51;;;;;;;61.90;56.00;;;;;;;;;;4977953;28;20337;-71
2021/07/13 05:28:36;;;;;;;62.73;56.73;;;;;;;;;;4977451;28;20226;-71
2021/07/13 05:31:21;;;;;;;62.87;56.77;;;;;;;;;;4978125;28;20299;-72
2021/07/13 05:34:05;;;;;;;65.73;59.33;;;;;;;;;;4978139;28;20205;-71
2021/07/13 05:36:52;;;;;;;66.53;60.07;;;;;;;;;;4977405;28;20213;-72
2021/07/13 05:39:36;;;;;;;65.80;59.33;;;;;;;;;;4977947;28;20216;-71
2021/07/13 05:42:22;;;;;;;74.75;67.45;;;;;;;;;;4976675;28;20427;-72
2021/07/13 05:45:07;;;;;;;73.03;65.33;;;;;;;;;;4976865;28;20271;-71
2021/07/13 05:47:52;;;;;;;68.93;61.83;;;;;;;;;;4976522;28;20258;-71
2021/07/13 05:50:37;;;;;;;70.90;63.67;;;;;;;;;;4977167;28;20211;-72
2021/07/13 05:53:24;;;;;;;72.77;65.27;;;;;;;;;;4968846;28;20199;-71
2021/07/13 05:56:10;;;;;;;69.73;62.43;;;;;;;;;;4977197;28;20590;-71
2021/07/13 05:58:55;;;;;;;70.93;63.60;;;;;;;;;;4972640;28;20218;-72
2021/07/13 06:01:40;;;;;;;72.37;64.90;;;;;;;;;;4974812;28;20231;-75
2021/07/13 06:04:24;;;;;;;72.13;64.43;;;;;;;;;;4975388;28;20224;-72
2021/07/13 06:07:09;;;;;;;70.90;63.17;;;;;;;;;;4975279;28;20705;-72
2021/07/13 06:09:56;;;;;;;72.70;65.00;;;;;;;;;;4977101;28;20208;-72
2021/07/13 06:12:41;;;;;;;76.07;68.20;;;;;;;;;;4976360;28;20528;-73
2021/07/13 06:15:26;;;;;;;74.20;66.47;;;;;;;;;;4974154;28;20238;-72
2021/07/13 06:18:11;;;;;;;76.37;68.40;;;;;;;;;;4975791;28;20208;-72
2021/07/13 06:20:56;;;;;;;77.23;69.07;;;;;;;;;;4973749;28;20265;-72
2021/07/13 06:23:41;;;;;;;78.60;70.03;;;;;;;;;;4975489;28;20717;-73
2021/07/13 06:26:27;;;;;;;80.10;71.13;;;;;;;;;;4973815;28;20684;-73
2021/07/13 06:29:12;;;;;;;81.03;72.30;;;;;;;;;;4967394;28;20256;-72
2021/07/13 06:31:57;;;;;;;82.47;73.10;;;;;;;;;;4965114;28;20237;-73
2021/07/13 06:34:42;;;;;;;86.73;74.63;;;;;;;;;;4973624;28;20726;-73
2021/07/13 06:37:27;;;;;;;89.13;75.67;;;;;;;;;;4971987;28;20205;-73
2021/07/13 06:40:12;;;;;;;91.23;79.40;;;;;;;;;;4974083;28;20204;-73
2021/07/13 06:42:59;;;;;;;92.13;79.63;;;;;;;;;;4973150;28;20720;-73
2021/07/13 06:45:44;;;;;;;97.43;80.00;;;;;;;;;;4973260;28;20709;-73
2021/07/13 06:48:28;;;;;;;105.10;86.75;;;;;;;;;;4972200;28;20399;-73
2021/07/13 06:51:13;;;;;;;100.53;83.63;;;;;;;;;;4965448;28;20509;-73
2021/07/13 06:53:58;;;;;;;104.13;86.73;;;;;;;;;;4973267;28;20209;-73
2021/07/13 06:56:43;;;;;;;104.07;86.00;;;;;;;;;;4971780;28;20267;-73
2021/07/13 06:59:34;;;;;;;101.17;84.70;;;;;;;;;;4967038;28;20216;-73
2021/07/13 07:02:18;;;;;;;95.10;80.17;;;;;;;;;;4973155;28;20589;-74
2021/07/13 07:05:04;;;;;;;92.23;76.53;;;;;;;;;;4972681;28;20267;-73
2021/07/13 07:07:50;;;;;;;104.60;81.83;;;;;;;;;;4972374;28;20289;-73
2021/07/13 07:10:36;;;;;;;101.67;82.10;;;;;;;;;;4967300;28;20216;-73
2021/07/13 07:13:21;;;;;;;106.60;82.90;;;;;;;;;;4970816;28;20222;-74
2021/07/13 07:16:07;;;;;;;111.37;84.57;;;;;;;;;;4972514;28;20215;-73
2021/07/13 07:18:52;;;;;;;106.33;83.17;;;;;;;;;;4972714;28;20303;-74
2021/07/13 07:21:38;;;;;;;94.23;77.33;;;;;;;;;;4970955;28;20224;-73
2021/07/13 07:24:22;;;;;;;95.70;77.87;;;;;;;;;;4972656;28;20228;-73
2021/07/13 07:27:07;;;;;;;89.80;73.10;;;;;;;;;;4971168;28;20212;-72
2021/07/13 07:29:52;;;;;;;96.30;77.00;;;;;;;;;;4972604;28;20216;-72
2021/07/13 07:32:39;;;;;;;92.17;73.57;;;;;;;;;;4968107;28;20243;-73
2021/07/13 07:35:24;;;;;;;91.57;73.57;;;;;;;;;;4972162;28;20590;-73
2021/07/13 07:38:10;;;;;;;100.37;76.13;;;;;;;;;;4968030;28;20217;-73
2021/07/13 07:40:56;;;;;;;96.60;75.43;;;;;;;;;;4972340;28;20499;-72
2021/07/13 07:43:41;;;;;;;91.37;72.50;;;;;;;;;;4971877;28;20225;-72
2021/07/13 07:46:26;;;;;;;89.72;73.70;;;;;;;;;;4972090;28;20485;-72
2021/07/13 07:49:12;;;;;;;74.83;62.90;;;;;;;;;;4972317;28;20204;-72
2021/07/13 07:51:57;;;;;;;84.53;65.93;;;;;;;;;;4970943;28;20251;-72
2021/07/13 07:54:44;;;;;;;84.40;66.07;;;;;;;;;;4971320;28;20219;-70
2021/07/13 07:57:29;;;;;;;81.03;66.03;;;;;;;;;;4970033;28;20216;-71
2021/07/13 08:00:17;;;;;;;79.17;65.17;;;;;;;;;;4970072;28;20227;-71
2021/07/13 08:03:01;;;;;;;80.23;66.90;;;;;;;;;;4971459;28;20452;-71
2021/07/13 08:05:53;;;;;;;80.83;66.03;;;;;;;;;;4970584;28;20216;-71
2021/07/13 08:08:38;;;;;;;82.47;65.10;;;;;;;;;;4971607;28;20679;-72
2021/07/13 08:11:23;;;;;;;74.10;63.00;;;;;;;;;;4968411;28;20756;-72
2021/07/13 08:14:08;;;;;;;78.40;64.33;;;;;;;;;;4971715;28;20210;-72
2021/07/13 08:16:55;;;;;;;69.20;59.67;;;;;;;;;;4970315;28;20204;-72
2021/07/13 08:19:39;;;;;;;70.50;61.07;;;;;;;;;;4966984;28;20215;-71
2021/07/13 08:22:26;;;;;;;65.67;58.30;;;;;;;;;;4960866;28;20236;-71
2021/07/13 08:25:12;;;;;;;74.20;66.40;;;;;;;;;;4951557;29;20949;-71
2021/07/13 08:27:57;;;;;;;65.20;57.17;;;;;;;;;;4952327;29;20240;-71
2021/07/13 08:30:45;;;;;;;60.03;53.60;;;;;;;;;;4953368;28;20218;-71
2021/07/13 08:33:30;;;;;;;57.53;51.47;;;;;;;;;;4952473;28;20560;-71
2021/07/13 08:36:15;;;;;;;59.47;53.13;;;;;;;;;;4958092;28;20215;-71
2021/07/13 08:39:01;;;;;;;61.00;54.33;;;;;;;;;;4966880;28;20205;-71
2021/07/13 08:41:47;;;;;;;59.47;52.97;;;;;;;;;;4970061;28;20229;-71
2021/07/13 08:44:33;;;;;;;60.60;54.03;;;;;;;;;;4964213;28;20227;-71
2021/07/13 08:47:18;;;;;;;58.80;52.87;;;;;;;;;;4965780;28;20259;-72
2021/07/13 08:50:03;;;;;;;55.53;49.73;;;;;;;;;;4953824;28;20229;-71
2021/07/13 08:52:49;;;;;;;57.00;51.17;;;;;;;;;;4952744;28;20239;-71
2021/07/13 08:55:35;;;;;;;55.63;49.83;;;;;;;;;;4968001;28;20289;-71
2021/07/13 08:58:21;;;;;;;57.97;51.80;;;;;;;;;;4972722;23;20249;-69
2021/07/13 09:01:06;;;;;;;58.87;52.47;;;;;;;;;;4934263;29;20202;-69
2021/07/13 09:03:55;;;;;;;56.27;50.10;;;;;;;;;;4936003;29;20254;-70
2021/07/13 09:06:50;;;;;;;56.07;50.37;;;;;;;;;;4948962;29;20691;-70
2021/07/13 09:09:36;;;;;;;56.07;50.37;;;;;;;;;;4948411;29;20226;-71
2021/07/13 09:12:23;;;;;;;57.23;51.47;;;;;;;;;;4949830;29;20212;-70
2021/07/13 09:15:08;;;;;;;56.13;50.43;;;;;;;;;;4951280;29;20218;-70
2021/07/13 09:17:53;;;;;;;50.60;45.73;;;;;;;;;;4950346;29;20228;-70
2021/07/13 09:20:38;;;;;;;51.60;46.70;;;;;;;;;;4949679;29;20339;-70
2021/07/13 09:23:23;;;;;;;50.20;45.33;;;;;;;;;;4942430;29;20337;-70
2021/07/13 09:26:08;;;;;;;49.07;44.07;;;;;;;;;;4951611;29;20273;-70
2021/07/13 09:28:55;;;;;;;52.83;47.50;;;;;;;;;;4948245;29;20237;-69
2021/07/13 09:31:40;;;;;;;52.17;46.97;;;;;;;;;;4949292;29;20265;-70
2021/07/13 09:34:25;;;;;;;50.93;46.10;;;;;;;;;;4948773;29;20217;-70
2021/07/13 09:37:20;;;;;;;51.03;46.20;;;;;;;;;;4943442;29;20254;-71
2021/07/13 09:40:09;;;;;;;49.77;44.90;;;;;;;;;;4952557;28;20231;-69
2021/07/13 09:42:55;;;;;;;48.30;43.70;;;;;;;;;;4941146;29;20774;-69
2021/07/13 09:45:42;;;;;;;57.17;51.88;;;;;;;;;;4941614;29;20795;-69
2021/07/13 09:48:27;;;;;;;47.97;43.43;;;;;;;;;;4947248;29;20239;-70
2021/07/13 09:51:11;;;;;;;52.33;47.23;;;;;;;;;;4944673;28;20216;-71
2021/07/13 09:53:56;;;;;;;47.50;42.87;;;;;;;;;;4947980;29;20224;-72
2021/07/13 09:56:42;;;;;;;47.30;42.60;;;;;;;;;;4931999;28;20211;-71
2021/07/13 09:59:28;;;;;;;47.67;42.97;;;;;;;;;;4933468;28;20241;-70
2021/07/13 10:02:16;;;;;;;47.00;42.50;;;;;;;;;;4936260;28;20219;-70
2021/07/13 10:05:03;;;;;;;48.27;43.70;;;;;;;;;;4942177;28;20595;-70
2021/07/13 10:07:48;;;;;;;48.40;44.00;;;;;;;;;;4951088;28;20363;-70
2021/07/13 10:10:33;;;;;;;46.73;42.27;;;;;;;;;;4946144;28;20576;-72
2021/07/13 10:13:19;;;;;;;46.43;42.23;;;;;;;;;;4945757;28;20217;-69
2021/07/13 10:16:05;;;;;;;45.30;41.20;;;;;;;;;;4951697;29;20208;-70
2021/07/13 10:18:51;;;;;;;47.47;43.07;;;;;;;;;;4946860;28;20335;-70
2021/07/13 10:21:37;;;;;;;45.73;41.33;;;;;;;;;;4944050;28;20574;-70
2021/07/13 10:24:23;;;;;;;42.67;38.67;;;;;;;;;;4937624;28;20228;-70
2021/07/13 10:27:13;;;;;;;43.03;39.07;;;;;;;;;;4952509;29;20225;-71
2021/07/13 10:29:59;;;;;;;44.07;39.83;;;;;;;;;;4942228;28;20223;-73
2021/07/13 10:32:45;;;;;;;45.80;41.67;;;;;;;;;;4947191;28;20212;-68
2021/07/13 10:35:32;;;;;;;40.27;36.67;;;;;;;;;;4937194;28;20212;-70
2021/07/13 10:38:21;;;;;;;43.00;39.28;;;;;;;;;;4940543;29;20478;-76
2021/07/13 10:41:11;;;;;;;37.43;34.07;;;;;;;;;;4936846;29;20205;-76
2021/07/13 10:43:56;;;;;;;39.77;36.17;;;;;;;;;;4935851;28;20206;-76
2021/07/13 10:47:01;;;;;;;40.33;36.63;;;;;;;;;;4941111;29;20289;-77
2021/07/13 10:49:46;;;;;;;35.30;32.03;;;;;;;;;;4942286;28;20220;-77
2021/07/13 10:52:51;;;;;;;37.03;33.80;;;;;;;;;;4941617;29;20719;-77
2021/07/13 10:55:46;;;;;;;35.50;32.40;;;;;;;;;;4936805;28;20216;-76
2021/07/13 10:58:39;;;;;;;34.00;31.20;;;;;;;;;;4945374;28;20291;-76
2021/07/13 11:01:25;;;;;;;33.77;30.97;;;;;;;;;;4938226;28;20219;-76
2021/07/13 11:04:12;;;;;;;33.80;30.90;;;;;;;;;;4945518;29;20689;-75
2021/07/13 11:06:58;;;;;;;34.63;31.63;;;;;;;;;;4949386;28;20227;-73
2021/07/13 11:09:45;;;;;;;33.97;30.77;;;;;;;;;;4940741;29;20351;-75
2021/07/13 11:12:30;;;;;;;39.97;36.58;;;;;;;;;;4935388;28;20479;-76
2021/07/13 11:15:14;;;;;;;34.57;31.47;;;;;;;;;;4942986;28;20259;-75
2021/07/13 11:17:59;;;;;;;33.90;30.97;;;;;;;;;;4936010;28;20243;-74
2021/07/13 11:20:44;;;;;;;34.97;31.90;;;;;;;;;;4935992;29;20216;-75
2021/07/13 11:23:29;;;;;;;31.47;28.67;;;;;;;;;;4943805;29;20208;-73
2021/07/13 11:26:16;;;;;;;30.83;28.13;;;;;;;;;;4946406;28;20626;-75
2021/07/13 11:29:03;;;;;;;29.33;26.90;;;;;;;;;;4949059;29;20324;-75
2021/07/13 11:31:51;;;;;;;30.83;28.30;;;;;;;;;;4935848;28;20293;-75
2021/07/13 11:34:37;;;;;;;30.33;27.83;;;;;;;;;;4940080;29;20214;-77
2021/07/13 11:37:24;;;;;;;30.80;28.20;;;;;;;;;;4948776;29;20212;-77
2021/07/13 11:40:09;;;;;;;31.13;28.53;;;;;;;;;;4953893;29;20207;-75
2021/07/13 11:43:00;;;;;;;31.60;29.00;;;;;;;;;;4949379;29;20217;-77
2021/07/13 11:45:45;;;;;;;33.37;30.57;;;;;;;;;;4945581;28;20219;-74
2021/07/13 11:48:30;;;;;;;34.70;31.73;;;;;;;;;;4943755;28;20357;-76
2021/07/13 11:51:22;;;;;;;33.93;30.83;;;;;;;;;;4939684;28;20204;-75
2021/07/13 11:54:08;;;;;;;37.33;33.83;;;;;;;;;;4945277;28;20206;-76
2021/07/13 11:56:55;;;;;;;35.87;32.80;;;;;;;;;;4949914;29;20726;-77
2021/07/13 11:59:42;;;;;;;38.80;35.37;;;;;;;;;;4946648;29;20698;-76
2021/07/13 12:02:28;;;;;;;40.17;36.53;;;;;;;;;;4937746;28;20212;-75
2021/07/13 12:05:19;;;;;;;39.30;35.70;;;;;;;;;;4947095;28;20356;-76
2021/07/13 12:08:04;;;;;;;41.50;37.73;;;;;;;;;;4936484;28;20241;-74
2021/07/13 12:10:51;;;;;;;44.72;40.50;;;;;;;;;;4949461;29;20985;-76
2021/07/13 12:13:37;;;;;;;43.97;39.87;;;;;;;;;;4950456;29;20213;-77
2021/07/13 12:16:25;;;;;;;44.87;40.67;;;;;;;;;;4951430;29;20208;-77
2021/07/13 12:19:11;;;;;;;44.87;40.50;;;;;;;;;;4940397;28;20324;-76
2021/07/13 12:21:56;;;;;;;47.33;42.67;;;;;;;;;;4932736;28;20688;-75
2021/07/13 12:24:43;;;;;;;46.43;41.97;;;;;;;;;;4946292;29;20288;-75
2021/07/13 12:27:32;;;;;;;47.77;43.00;;;;;;;;;;4949324;29;20713;-75
2021/07/13 12:30:17;;;;;;;46.23;41.83;;;;;;;;;;4935461;28;20303;-76
2021/07/13 12:33:04;;;;;;;50.63;45.80;;;;;;;;;;4944095;29;20205;-77
2021/07/13 12:35:49;;;;;;;53.85;48.85;;;;;;;;;;4949318;29;20401;-78
2021/07/13 12:38:37;;;;;;;47.20;42.57;;;;;;;;;;4952255;29;20235;-78
2021/07/13 12:41:22;;;;;;;46.50;41.90;;;;;;;;;;4958338;29;20205;-77
2021/07/13 12:44:22;;;;;;;48.53;43.63;;;;;;;;;;4941130;29;20215;-77
2021/07/13 12:47:31;;;;;;;48.27;43.53;;;;;;;;;;4941382;28;20225;-77
2021/07/13 12:50:19;;;;;;;49.77;44.87;;;;;;;;;;4938077;28;20205;-78
2021/07/13 12:53:06;;;;;;;49.97;45.23;;;;;;;;;;4937358;29;20200;-72
2021/07/13 12:55:51;;;;;;;48.80;44.30;;;;;;;;;;4934453;28;20210;-74
2021/07/13 12:58:36;;;;;;;48.60;43.57;;;;;;;;;;4941657;28;20345;-75
2021/07/13 13:01:21;;;;;;;49.27;44.50;;;;;;;;;;4938074;28;20214;-73
2021/07/13 13:04:09;;;;;;;49.10;44.47;;;;;;;;;;4938148;28;20216;-74
2021/07/13 13:06:56;;;;;;;50.77;46.07;;;;;;;;;;4936057;28;20213;-74
2021/07/13 13:09:41;;;;;;;51.43;46.47;;;;;;;;;;4944625;28;20213;-74
2021/07/13 13:12:26;;;;;;;50.67;45.67;;;;;;;;;;4934696;29;20273;-73
2021/07/13 13:15:11;;;;;;;50.50;45.60;;;;;;;;;;4937751;28;20602;-73
2021/07/13 13:17:57;;;;;;;52.00;47.03;;;;;;;;;;4948363;28;20228;-74
2021/07/13 13:20:42;;;;;;;49.87;44.97;;;;;;;;;;4965547;28;20589;-74
2021/07/13 13:23:29;;;;;;;49.83;44.93;;;;;;;;;;4969044;28;20344;-73
2021/07/13 13:26:14;;;;;;;50.77;45.77;;;;;;;;;;4952472;29;20224;-74
2021/07/13 13:28:59;;;;;;;52.33;47.37;;;;;;;;;;4952830;29;20728;-74
2021/07/13 13:31:44;;;;;;;53.17;48.07;;;;;;;;;;4958399;29;20704;-74
2021/07/13 13:34:32;;;;;;;54.40;49.42;;;;;;;;;;4952687;28;20468;-75
2021/07/13 13:37:22;;;;;;;50.90;46.10;;;;;;;;;;4943187;29;20681;-74
2021/07/13 13:40:09;;;;;;;48.23;43.73;;;;;;;;;;4948344;28;20220;-74
2021/07/13 13:42:54;;;;;;;49.83;45.23;;;;;;;;;;4937223;28;20276;-76
2021/07/13 13:45:39;;;;;;;47.47;43.17;;;;;;;;;;4939221;28;20289;-76
2021/07/13 13:48:24;;;;;;;47.37;42.63;;;;;;;;;;4938970;29;20232;-74
2021/07/13 13:51:10;;;;;;;47.20;42.73;;;;;;;;;;4936434;28;20221;-75
2021/07/13 13:53:55;;;;;;;46.17;41.97;;;;;;;;;;4944808;28;20714;-74
2021/07/13 13:56:41;;;;;;;44.50;40.63;;;;;;;;;;4951608;29;20216;-73
2021/07/13 13:59:27;;;;;;;48.07;43.63;;;;;;;;;;4946849;29;20270;-76
2021/07/13 14:02:26;;;;;;;44.93;40.87;;;;;;;;;;4943813;28;20213;-75
2021/07/13 14:08:32;;;;;;;43.00;39.10;;;;;;;;;;4952016;28;20228;-73
2021/07/13 14:11:55;;;;;;;44.33;40.37;;;;;;;;;;4942849;29;20268;-74
2021/07/13 14:14:55;;;;;;;42.63;38.73;;;;;;;;;;4947473;29;20210;-74
2021/07/13 14:17:41;;;;;;;39.73;36.20;;;;;;;;;;4945990;28;20241;-73
2021/07/13 14:20:26;;;;;;;40.57;37.07;;;;;;;;;;4955053;29;20212;-74
2021/07/13 14:23:11;;;;;;;40.33;36.73;;;;;;;;;;4946410;28;20225;-74
2021/07/13 14:25:56;;;;;;;37.23;33.93;;;;;;;;;;4947103;28;20745;-73
2021/07/13 14:28:41;;;;;;;37.97;34.67;;;;;;;;;;4943699;28;20793;-74
2021/07/13 14:31:27;;;;;;;39.37;35.77;;;;;;;;;;4941127;28;20273;-74
2021/07/13 14:34:12;;;;;;;41.15;37.65;;;;;;;;;;4936662;28;20896;-72
2021/07/13 14:36:57;;;;;;;38.70;35.17;;;;;;;;;;4944608;28;20209;-73
2021/07/13 14:39:42;;;;;;;36.90;33.77;;;;;;;;;;4949045;29;20342;-73
2021/07/13 14:42:27;;;;;;;36.90;33.70;;;;;;;;;;4946615;28;20208;-74
2021/07/13 14:45:12;;;;;;;35.67;32.50;;;;;;;;;;4936917;29;20289;-76
2021/07/13 14:47:59;;;;;;;36.33;33.10;;;;;;;;;;4947708;29;20228;-74
2021/07/13 14:50:46;;;;;;;33.80;30.90;;;;;;;;;;4935639;28;20757;-75
2021/07/13 14:53:31;;;;;;;34.63;31.53;;;;;;;;;;4945584;28;20221;-74
2021/07/13 14:56:16;;;;;;;33.80;30.90;;;;;;;;;;4944896;29;20661;-73
2021/07/13 14:59:01;;;;;;;32.27;29.77;;;;;;;;;;4957079;23;20241;-71
2021/07/13 15:01:46;;;;;;;33.43;30.47;;;;;;;;;;4963512;28;20287;-71
2021/07/13 15:04:32;;;;;;;31.60;28.80;;;;;;;;;;4971322;28;20338;-70
2021/07/13 15:07:17;;;;;;;32.43;29.63;;;;;;;;;;4957192;28;20221;-70
2021/07/13 15:10:03;;;;;;;32.77;29.90;;;;;;;;;;4943045;28;20229;-71
2021/07/13 15:12:48;;;;;;;32.53;29.87;;;;;;;;;;4943662;29;20210;-68
2021/07/13 15:15:33;;;;;;;33.47;30.67;;;;;;;;;;4938720;29;20209;-70
2021/07/13 15:18:19;;;;;;;34.27;31.17;;;;;;;;;;4934259;29;20576;-70
2021/07/13 15:21:05;;;;;;;34.40;31.50;;;;;;;;;;4934711;29;20205;-71
2021/07/13 15:23:50;;;;;;;33.87;31.13;;;;;;;;;;4941190;29;20213;-71
2021/07/13 15:26:35;;;;;;;34.40;31.57;;;;;;;;;;4951761;29;20560;-71
2021/07/13 15:29:19;;;;;;;34.83;31.87;;;;;;;;;;4953599;29;20616;-71
2021/07/13 15:32:05;;;;;;;36.75;33.75;;;;;;;;;;4952791;29;20424;-70
2021/07/13 15:34:50;;;;;;;34.03;31.13;;;;;;;;;;4948802;29;20217;-71
2021/07/13 15:37:36;;;;;;;35.17;32.27;;;;;;;;;;4952596;29;20296;-70
2021/07/13 15:40:21;;;;;;;35.53;32.63;;;;;;;;;;4945879;29;20236;-71
2021/07/13 15:43:06;;;;;;;33.67;31.00;;;;;;;;;;4952884;29;20203;-71
2021/07/13 15:45:52;;;;;;;34.63;31.83;;;;;;;;;;4952659;29;20312;-71
2021/07/13 15:48:37;;;;;;;34.23;31.33;;;;;;;;;;4952076;28;20697;-70
2021/07/13 15:51:22;;;;;;;34.63;31.70;;;;;;;;;;4953093;29;20217;-71
2021/07/13 15:54:10;;;;;;;35.53;32.53;;;;;;;;;;4952532;29;20224;-69
2021/07/13 15:56:55;;;;;;;35.90;32.80;;;;;;;;;;4951769;28;20338;-70
2021/07/13 15:59:40;;;;;;;36.47;33.37;;;;;;;;;;4949799;29;20772;-70
2021/07/13 16:02:25;;;;;;;37.30;33.90;;;;;;;;;;4952117;29;20280;-70
2021/07/13 16:05:11;;;;;;;36.63;33.47;;;;;;;;;;4952052;29;20689;-70
2021/07/13 16:07:59;;;;;;;35.15;32.08;;;;;;;;;;4946848;29;20421;-69
2021/07/13 16:10:46;;;;;;;38.07;34.67;;;;;;;;;;4952424;29;20233;-70